^^
Saratoga-Weather Station Historical Data
Daily Summary for December 28, 2021 Units:  Both    English   Metric
Daily Weekly Monthly Yearly Custom
  High: Low: Average:
Temperature: 51.4 °F /  10.8 °C 46 °F /  7.8 °C 48.7 °F /  9.3 °C
Dew Point: 49.5 °F /  9.7 °C 43 °F /  6.1 °C 46.2 °F /  7.9 °C
Humidity: 97% 75% 91%
Wind Speed: 17mph /  27.4km/h - 4.5mph /  7.3km/h
Wind Gust: 23mph /  37km/h - -
Wind- - SW
Pressure: 29.6 in /  1002.7 hPa 29.3 in /  993.6 hPa -
Precipitation: 0.65 in /  16.5 mm    
Historical Graphs
 
 
Tabular Data for December 28, 2021
Time Temperature Dew Point Pressure Wind Wind Speed Wind Gust Humidity Rainfall Rate (Hourly) solar
00:02 48.7 °F /  9.3 °C 46.8 °F /  8.2 °C 29.5in /  998.6hPa North 4mph /  6.4km/h 7mph /  11.3km/h 93% 0in /  0.0mm 0 W/m2
00:07 48.6 °F /  9.2 °C 46.6 °F /  8.1 °C 29.5in /  998.6hPa NNE 2mph /  3.2km/h 3mph /  4.8km/h 93% 0in /  0.0mm 0 W/m2
00:12 48.6 °F /  9.2 °C 46.6 °F /  8.1 °C 29.5in /  998.6hPa North 0.9mph /  1.4km/h 5mph /  8km/h 93% 0in /  0.0mm 0 W/m2
00:17 48.6 °F /  9.2 °C 46.6 °F /  8.1 °C 29.5in /  998.3hPa NNE 2mph /  3.2km/h 4mph /  6.4km/h 93% 0in /  0.0mm 0 W/m2
00:22 48.6 °F /  9.2 °C 46.4 °F /  8 °C 29.5in /  998.3hPa NNW 2mph /  3.2km/h 4mph /  6.4km/h 92% 0in /  0.0mm 0 W/m2
00:27 48.6 °F /  9.2 °C 46.4 °F /  8 °C 29.5in /  998.3hPa Calm   2mph /  3.2km/h 92% 0in /  0.0mm 0 W/m2
00:32 48.6 °F /  9.2 °C 46.4 °F /  8 °C 29.5in /  998.0hPa Calm   4mph /  6.4km/h 92% 0in /  0.0mm 0 W/m2
00:37 48.6 °F /  9.2 °C 46.4 °F /  8 °C 29.5in /  998.0hPa East 2.9mph /  4.7km/h 4mph /  6.4km/h 92% 0in /  0.0mm 0 W/m2
00:42 48.4 °F /  9.1 °C 46.2 °F /  7.9 °C 29.5in /  998.0hPa ESE 4mph /  6.4km/h 7mph /  11.3km/h 92% 0in /  0.0mm 0 W/m2
00:47 47.8 °F /  8.8 °C 45.7 °F /  7.6 °C 29.5in /  998.0hPa East 4mph /  6.4km/h 8mph /  12.9km/h 92% 0in /  0.0mm 0 W/m2
00:52 47.3 °F /  8.5 °C 45.3 °F /  7.4 °C 29.5in /  998.0hPa East 2mph /  3.2km/h 4mph /  6.4km/h 93% 0in /  0.0mm 0 W/m2
00:57 46.9 °F /  8.3 °C 45 °F /  7.2 °C 29.5in /  997.6hPa East 2.9mph /  4.7km/h 8mph /  12.9km/h 93% 0in /  0.0mm 0 W/m2
01:02 46.8 °F /  8.2 °C 44.8 °F /  7.1 °C 29.5in /  997.6hPa East 4.9mph /  7.9km/h 5mph /  8km/h 93% 0in /  0.0mm 0 W/m2
01:07 46.8 °F /  8.2 °C 45.1 °F /  7.3 °C 29.5in /  997.6hPa ENE 2mph /  3.2km/h 5mph /  8km/h 94% 0in /  0.0mm 0 W/m2
01:12 46.6 °F /  8.1 °C 45 °F /  7.2 °C 29.5in /  997.6hPa ENE 2mph /  3.2km/h 3mph /  4.8km/h 94% 0in /  0.0mm 0 W/m2
01:17 46.6 °F /  8.1 °C 45 °F /  7.2 °C 29.5in /  997.6hPa NE 2mph /  3.2km/h 5mph /  8km/h 94% 0in /  0.0mm 0 W/m2
01:22 46.6 °F /  8.1 °C 45 °F /  7.2 °C 29.5in /  997.3hPa NE 2mph /  3.2km/h 5mph /  8km/h 94% 0in /  0.0mm 0 W/m2
01:27 46.6 °F /  8.1 °C 45 °F /  7.2 °C 29.5in /  997.3hPa East 4mph /  6.4km/h 8mph /  12.9km/h 94% 0in /  0.0mm 0 W/m2
01:32 46.8 °F /  8.2 °C 45.1 °F /  7.3 °C 29.5in /  997.3hPa ENE 4mph /  6.4km/h 4mph /  6.4km/h 94% 0in /  0.0mm 0 W/m2
01:37 46.8 °F /  8.2 °C 45.3 °F /  7.4 °C 29.5in /  997.3hPa ESE 8.1mph /  13km/h 8mph /  12.9km/h 95% 0in /  0.0mm 0 W/m2
01:42 46.9 °F /  8.3 °C 45.3 °F /  7.4 °C 29.4in /  997.0hPa East 2.9mph /  4.7km/h 5mph /  8km/h 94% 0in /  0.0mm 0 W/m2
01:47 46.9 °F /  8.3 °C 45.3 °F /  7.4 °C 29.4in /  997.0hPa NE 2mph /  3.2km/h 7mph /  11.3km/h 94% 0in /  0.0mm 0 W/m2
01:52 46.8 °F /  8.2 °C 45.1 °F /  7.3 °C 29.4in /  997.0hPa Calm   4mph /  6.4km/h 94% 0in /  0.0mm 0 W/m2
01:57 46.8 °F /  8.2 °C 45.3 °F /  7.4 °C 29.4in /  997.0hPa ENE 2.9mph /  4.7km/h 7mph /  11.3km/h 95% 0in /  0.0mm 0 W/m2
02:02 46.8 °F /  8.2 °C 45.1 °F /  7.3 °C 29.4in /  997.0hPa NE 2.9mph /  4.7km/h 4mph /  6.4km/h 94% 0in /  0.0mm 0 W/m2
02:07 46.8 °F /  8.2 °C 45.3 °F /  7.4 °C 29.4in /  997.0hPa NNE 2mph /  3.2km/h 4mph /  6.4km/h 95% 0in /  0.0mm 0 W/m2
02:12 46.8 °F /  8.2 °C 45.3 °F /  7.4 °C 29.4in /  997.0hPa ESE 2mph /  3.2km/h 6mph /  9.7km/h 95% 0in /  0.0mm 0 W/m2
02:17 46.9 °F /  8.3 °C 45.5 °F /  7.5 °C 29.4in /  996.6hPa North 0.9mph /  1.4km/h 6mph /  9.7km/h 95% 0in /  0.0mm 0 W/m2
02:22 46.9 °F /  8.3 °C 45.5 °F /  7.5 °C 29.4in /  996.6hPa Calm   6mph /  9.7km/h 95% 0in /  0.0mm 0 W/m2
02:27 46.9 °F /  8.3 °C 45.5 °F /  7.5 °C 29.4in /  996.6hPa East 0.9mph /  1.4km/h 2mph /  3.2km/h 95% 0in /  0.0mm 0 W/m2
02:33 46.9 °F /  8.3 °C 45.3 °F /  7.4 °C 29.4in /  996.6hPa ENE 2mph /  3.2km/h 6mph /  9.7km/h 94% 0.01in /  0.2mm 0 W/m2
02:38 46.8 °F /  8.2 °C 45.1 °F /  7.3 °C 29.4in /  996.6hPa Calm     94% 0.01in /  0.2mm 0 W/m2
02:43 46.6 °F /  8.1 °C 45 °F /  7.2 °C 29.4in /  996.3hPa East 0.9mph /  1.4km/h 3mph /  4.8km/h 94% 0.01in /  0.2mm 0 W/m2
02:48 46.6 °F /  8.1 °C 45.1 °F /  7.3 °C 29.4in /  996.3hPa ENE 2.9mph /  4.7km/h 4mph /  6.4km/h 95% 0.01in /  0.2mm 0 W/m2
02:53 46.4 °F /  8 °C 45 °F /  7.2 °C 29.4in /  996.3hPa ENE 2.9mph /  4.7km/h 3mph /  4.8km/h 95% 0.01in /  0.2mm 0 W/m2
02:58 46.2 °F /  7.9 °C 44.8 °F /  7.1 °C 29.4in /  995.9hPa ESE 0.9mph /  1.4km/h 3mph /  4.8km/h 95% 0.01in /  0.2mm 0 W/m2
03:03 46.2 °F /  7.9 °C 44.8 °F /  7.1 °C 29.4in /  995.9hPa East 0.9mph /  1.4km/h 2mph /  3.2km/h 95% 0.01in /  0.2mm 0 W/m2
03:08 46.2 °F /  7.9 °C 44.8 °F /  7.1 °C 29.4in /  995.9hPa NE 0.9mph /  1.4km/h 4mph /  6.4km/h 95% 0.02in /  0.5mm 0 W/m2
03:13 46.2 °F /  7.9 °C 44.8 °F /  7.1 °C 29.4in /  995.9hPa NE 2mph /  3.2km/h 3mph /  4.8km/h 95% 0.02in /  0.5mm 0 W/m2
03:18 46.4 °F /  8 °C 45 °F /  7.2 °C 29.4in /  995.6hPa East 2mph /  3.2km/h 3mph /  4.8km/h 95% 0.04in /  1.0mm 0 W/m2
03:23 46.4 °F /  8 °C 45 °F /  7.2 °C 29.4in /  995.6hPa ENE 2mph /  3.2km/h 3mph /  4.8km/h 95% 0.04in /  1.0mm 0 W/m2
03:28 46.4 °F /  8 °C 45 °F /  7.2 °C 29.4in /  995.3hPa East 2mph /  3.2km/h 4mph /  6.4km/h 95% 0.05in /  1.3mm 0 W/m2
03:33 46.6 °F /  8.1 °C 45.1 °F /  7.3 °C 29.4in /  995.6hPa ESE 0.9mph /  1.4km/h 4mph /  6.4km/h 95% 0.04in /  1.0mm 0 W/m2
03:38 46.6 °F /  8.1 °C 45.5 °F /  7.5 °C 29.4in /  995.3hPa East 0.9mph /  1.4km/h 2mph /  3.2km/h 96% 0.05in /  1.3mm 0 W/m2
03:43 46.6 °F /  8.1 °C 45.5 °F /  7.5 °C 29.4in /  995.3hPa ESE 2mph /  3.2km/h 7mph /  11.3km/h 96% 0.05in /  1.3mm 0 W/m2
03:48 46.6 °F /  8.1 °C 45.5 °F /  7.5 °C 29.4in /  995.3hPa East 0.9mph /  1.4km/h 4mph /  6.4km/h 96% 0.06in /  1.5mm 0 W/m2
03:53 46.6 °F /  8.1 °C 45.5 °F /  7.5 °C 29.4in /  995.3hPa East 2.9mph /  4.7km/h 4mph /  6.4km/h 96% 0.06in /  1.5mm 0 W/m2
03:58 46.8 °F /  8.2 °C 45.7 °F /  7.6 °C 29.4in /  995.3hPa ESE 2.9mph /  4.7km/h 7mph /  11.3km/h 96% 0.06in /  1.5mm 0 W/m2
04:03 46.8 °F /  8.2 °C 45.7 °F /  7.6 °C 29.4in /  995.3hPa ENE 0.9mph /  1.4km/h 6mph /  9.7km/h 96% 0.07in /  1.8mm 0 W/m2
04:08 46.8 °F /  8.2 °C 45.7 °F /  7.6 °C 29.4in /  995.3hPa ENE 4.9mph /  7.9km/h 6mph /  9.7km/h 96% 0.06in /  1.5mm 0 W/m2
04:13 46.9 °F /  8.3 °C 45.9 °F /  7.7 °C 29.4in /  994.9hPa Calm   3mph /  4.8km/h 96% 0.06in /  1.5mm 0 W/m2
04:18 46.9 °F /  8.3 °C 45.5 °F /  7.5 °C 29.4in /  994.9hPa NE 4mph /  6.4km/h 6mph /  9.7km/h 95% 0.05in /  1.3mm 0 W/m2
04:23 46.9 °F /  8.3 °C 45.5 °F /  7.5 °C 29.4in /  994.9hPa East 4mph /  6.4km/h 5mph /  8km/h 95% 0.06in /  1.5mm 0 W/m2
04:28 46.9 °F /  8.3 °C 45.5 °F /  7.5 °C 29.4in /  994.9hPa East 4mph /  6.4km/h 8mph /  12.9km/h 95% 0.05in /  1.3mm 0 W/m2
04:33 46.9 °F /  8.3 °C 45.5 °F /  7.5 °C 29.4in /  994.9hPa ESE 2mph /  3.2km/h 7mph /  11.3km/h 95% 0.07in /  1.8mm 0 W/m2
04:38 46.9 °F /  8.3 °C 45.5 °F /  7.5 °C 29.4in /  994.6hPa East 4.9mph /  7.9km/h 5mph /  8km/h 95% 0.08in /  2.0mm 0 W/m2
04:43 46.9 °F /  8.3 °C 45.5 °F /  7.5 °C 29.4in /  994.6hPa East 6mph /  9.7km/h 8mph /  12.9km/h 95% 0.1in /  2.5mm 0 W/m2
04:48 46.9 °F /  8.3 °C 45.5 °F /  7.5 °C 29.4in /  994.6hPa ENE 2.9mph /  4.7km/h 7mph /  11.3km/h 95% 0.11in /  2.8mm 0 W/m2
04:53 46.9 °F /  8.3 °C 45.5 °F /  7.5 °C 29.4in /  994.2hPa ENE 2mph /  3.2km/h 7mph /  11.3km/h 95% 0.13in /  3.3mm 0 W/m2
04:58 46.8 °F /  8.2 °C 45.3 °F /  7.4 °C 29.4in /  994.2hPa ENE 2mph /  3.2km/h 3mph /  4.8km/h 95% 0.14in /  3.6mm 0 W/m2
05:03 46.8 °F /  8.2 °C 45.3 °F /  7.4 °C 29.4in /  994.2hPa East 2mph /  3.2km/h 7mph /  11.3km/h 95% 0.15in /  3.8mm 0 W/m2
05:08 46.8 °F /  8.2 °C 45.3 °F /  7.4 °C 29.4in /  994.2hPa ENE 2mph /  3.2km/h 3mph /  4.8km/h 95% 0.17in /  4.3mm 0 W/m2
05:13 46.8 °F /  8.2 °C 45.3 °F /  7.4 °C 29.4in /  994.2hPa ENE 2mph /  3.2km/h 4mph /  6.4km/h 95% 0.19in /  4.8mm 0 W/m2
05:18 46.6 °F /  8.1 °C 45.5 °F /  7.5 °C 29.4in /  993.9hPa Calm   1mph /  1.6km/h 96% 0.22in /  5.6mm 0 W/m2
05:23 46.6 °F /  8.1 °C 45.5 °F /  7.5 °C 29.4in /  993.9hPa ENE 0.9mph /  1.4km/h 2mph /  3.2km/h 96% 0.24in /  6.1mm 0 W/m2
05:28 46.4 °F /  8 °C 45 °F /  7.2 °C 29.4in /  993.9hPa Calm     95% 0.28in /  7.1mm 0 W/m2
05:33 46.2 °F /  7.9 °C 44.8 °F /  7.1 °C 29.4in /  993.9hPa Calm     95% 0.28in /  7.1mm 0 W/m2
05:38 46.2 °F /  7.9 °C 45.1 °F /  7.3 °C 29.4in /  993.9hPa Calm     96% 0.3in /  7.6mm 0 W/m2
05:43 46.2 °F /  7.9 °C 45.1 °F /  7.3 °C 29.3in /  993.6hPa Calm   1mph /  1.6km/h 96% 0.31in /  7.9mm 0 W/m2
05:48 46.2 °F /  7.9 °C 45.1 °F /  7.3 °C 29.3in /  993.6hPa Calm     96% 0.32in /  8.1mm 0 W/m2
05:53 46 °F /  7.8 °C 45 °F /  7.2 °C 29.3in /  993.6hPa Calm   1mph /  1.6km/h 96% 0.31in /  7.9mm 0 W/m2
05:58 46 °F /  7.8 °C 45 °F /  7.2 °C 29.3in /  993.6hPa Calm     96% 0.31in /  7.9mm 0 W/m2
06:03 46 °F /  7.8 °C 45 °F /  7.2 °C 29.3in /  993.6hPa Calm     96% 0.3in /  7.6mm 0 W/m2
06:08 46 °F /  7.8 °C 45 °F /  7.2 °C 29.3in /  993.6hPa East 0.9mph /  1.4km/h 2mph /  3.2km/h 96% 0.28in /  7.1mm 0 W/m2
06:13 46 °F /  7.8 °C 45 °F /  7.2 °C 29.3in /  993.6hPa Calm     96% 0.27in /  6.9mm 0 W/m2
06:18 46 °F /  7.8 °C 45 °F /  7.2 °C 29.3in /  993.6hPa Calm     96% 0.24in /  6.1mm 0 W/m2
06:23 46 °F /  7.8 °C 45 °F /  7.2 °C 29.3in /  993.6hPa Calm     96% 0.21in /  5.3mm 0 W/m2
06:28 46 °F /  7.8 °C 45 °F /  7.2 °C 29.3in /  993.6hPa North 0.9mph /  1.4km/h 2mph /  3.2km/h 96% 0.18in /  4.6mm 0 W/m2
06:33 46 °F /  7.8 °C 45 °F /  7.2 °C 29.3in /  993.6hPa Calm     96% 0.15in /  3.8mm 0 W/m2
06:38 46.6 °F /  8.1 °C 45.9 °F /  7.7 °C 29.3in /  993.6hPa WSW 0.9mph /  1.4km/h 5mph /  8km/h 97% 0.12in /  3.0mm 0 W/m2
06:43 47.1 °F /  8.4 °C 46.4 °F /  8 °C 29.3in /  993.6hPa NNW 4mph /  6.4km/h 9mph /  14.5km/h 97% 0.08in /  2.0mm 0 W/m2
06:48 47.7 °F /  8.7 °C 46.9 °F /  8.3 °C 29.3in /  993.6hPa NW 4mph /  6.4km/h 5mph /  8km/h 97% 0.06in /  1.5mm 0 W/m2
06:53 47.8 °F /  8.8 °C 46.9 °F /  8.3 °C 29.3in /  993.6hPa WNW 0.9mph /  1.4km/h 6mph /  9.7km/h 97% 0.04in /  1.0mm 0 W/m2
06:58 48 °F /  8.9 °C 47.1 °F /  8.4 °C 29.4in /  993.9hPa NW 4mph /  6.4km/h 8mph /  12.9km/h 97% 0.04in /  1.0mm 0 W/m2
07:03 48.4 °F /  9.1 °C 47.5 °F /  8.6 °C 29.3in /  993.6hPa WNW 4mph /  6.4km/h 9mph /  14.5km/h 97% 0.03in /  0.8mm 0 W/m2
07:08 48.6 °F /  9.2 °C 47.7 °F /  8.7 °C 29.4in /  993.9hPa NW 2mph /  3.2km/h 6mph /  9.7km/h 97% 0.02in /  0.5mm 0 W/m2
07:13 48.7 °F /  9.3 °C 47.8 °F /  8.8 °C 29.4in /  993.9hPa WSW 4mph /  6.4km/h 6mph /  9.7km/h 97% 0.02in /  0.5mm 0 W/m2
07:18 48.7 °F /  9.3 °C 47.8 °F /  8.8 °C 29.4in /  993.9hPa West 0.9mph /  1.4km/h 5mph /  8km/h 97% 0.02in /  0.5mm 0 W/m2
07:23 48.9 °F /  9.4 °C 47.8 °F /  8.8 °C 29.4in /  993.9hPa WNW 2mph /  3.2km/h 2mph /  3.2km/h 96% 0.02in /  0.5mm 0 W/m2
07:28 48.9 °F /  9.4 °C 47.8 °F /  8.8 °C 29.4in /  994.2hPa West 6mph /  9.7km/h 7mph /  11.3km/h 96% 0.02in /  0.5mm 0 W/m2
07:33 49.1 °F /  9.5 °C 48 °F /  8.9 °C 29.4in /  994.2hPa West 2.9mph /  4.7km/h 9mph /  14.5km/h 96% 0.02in /  0.5mm 0 W/m2
07:38 49.3 °F /  9.6 °C 48.2 °F /  9 °C 29.4in /  994.2hPa WNW 6.9mph /  11.1km/h 9mph /  14.5km/h 96% 0.02in /  0.5mm 0 W/m2
07:43 49.3 °F /  9.6 °C 48.2 °F /  9 °C 29.4in /  994.2hPa West 11mph /  17.7km/h 11mph /  17.7km/h 96% 0.02in /  0.5mm 0 W/m2
07:48 49.5 °F /  9.7 °C 48.4 °F /  9.1 °C 29.4in /  994.2hPa NW 6mph /  9.7km/h 10mph /  16.1km/h 96% 0.02in /  0.5mm 0 W/m2
07:53 49.5 °F /  9.7 °C 48.4 °F /  9.1 °C 29.4in /  994.6hPa West 6.9mph /  11.1km/h 12mph /  19.3km/h 96% 0.02in /  0.5mm 0 W/m2
07:58 49.6 °F /  9.8 °C 48.6 °F /  9.2 °C 29.4in /  994.6hPa WNW 4.9mph /  7.9km/h 10mph /  16.1km/h 96% 0.02in /  0.5mm 0 W/m2
08:03 49.6 °F /  9.8 °C 48.2 °F /  9 °C 29.4in /  994.9hPa SW 2mph /  3.2km/h 8mph /  12.9km/h 95% 0.02in /  0.5mm 0 W/m2
08:08 49.6 °F /  9.8 °C 48.2 °F /  9 °C 29.4in /  994.9hPa West 11mph /  17.7km/h 11mph /  17.7km/h 95% 0.02in /  0.5mm 0 W/m2
08:13 49.6 °F /  9.8 °C 48.2 °F /  9 °C 29.4in /  994.9hPa NW 4.9mph /  7.9km/h 10mph /  16.1km/h 95% 0.01in /  0.2mm 0 W/m2
08:18 49.6 °F /  9.8 °C 48.2 °F /  9 °C 29.4in /  994.9hPa WSW 4.9mph /  7.9km/h 12mph /  19.3km/h 95% 0.01in /  0.2mm 0 W/m2
08:23 49.6 °F /  9.8 °C 48.2 °F /  9 °C 29.4in /  995.3hPa WSW 4.9mph /  7.9km/h 8mph /  12.9km/h 95% 0.01in /  0.2mm 0 W/m2
08:28 49.6 °F /  9.8 °C 48.2 °F /  9 °C 29.4in /  995.3hPa WNW 8.1mph /  13km/h 15mph /  24.1km/h 95% 0.01in /  0.2mm 0 W/m2
08:33 49.8 °F /  9.9 °C 48.4 °F /  9.1 °C 29.4in /  995.3hPa West 8.1mph /  13km/h 13mph /  20.9km/h 95% 0.01in /  0.2mm 0 W/m2
08:38 49.6 °F /  9.8 °C 48 °F /  8.9 °C 29.4in /  995.3hPa West 8.1mph /  13km/h 11mph /  17.7km/h 94% 0.01in /  0.2mm 0 W/m2
08:43 49.6 °F /  9.8 °C 48 °F /  8.9 °C 29.4in /  995.6hPa NNW 4mph /  6.4km/h 8mph /  12.9km/h 94% 0in /  0.0mm 0 W/m2
08:48 49.6 °F /  9.8 °C 48 °F /  8.9 °C 29.4in /  995.6hPa West 2mph /  3.2km/h 6mph /  9.7km/h 94% 0in /  0.0mm 0 W/m2
08:53 49.6 °F /  9.8 °C 48 °F /  8.9 °C 29.4in /  995.6hPa West 4mph /  6.4km/h 11mph /  17.7km/h 94% 0in /  0.0mm 5 W/m2
08:58 49.6 °F /  9.8 °C 48 °F /  8.9 °C 29.4in /  995.6hPa NW 4mph /  6.4km/h 7mph /  11.3km/h 94% 0in /  0.0mm 7 W/m2
09:03 49.6 °F /  9.8 °C 48.2 °F /  9 °C 29.4in /  995.6hPa WNW 2.9mph /  4.7km/h 12mph /  19.3km/h 95% 0in /  0.0mm 11 W/m2
09:08 49.6 °F /  9.8 °C 48.2 °F /  9 °C 29.4in /  995.9hPa WNW 4mph /  6.4km/h 9mph /  14.5km/h 95% 0in /  0.0mm 12 W/m2
09:13 49.6 °F /  9.8 °C 48.2 °F /  9 °C 29.4in /  995.9hPa NW 4mph /  6.4km/h 10mph /  16.1km/h 95% 0in /  0.0mm 9 W/m2
09:19 49.6 °F /  9.8 °C 48.2 °F /  9 °C 29.4in /  996.3hPa WNW 2mph /  3.2km/h 6mph /  9.7km/h 95% 0in /  0.0mm 7 W/m2
09:24 49.6 °F /  9.8 °C 48.2 °F /  9 °C 29.4in /  996.3hPa NW 2mph /  3.2km/h 5mph /  8km/h 95% 0in /  0.0mm 12 W/m2
09:29 49.6 °F /  9.8 °C 48.2 °F /  9 °C 29.4in /  996.3hPa NW 0.9mph /  1.4km/h 5mph /  8km/h 95% 0in /  0.0mm 25 W/m2
09:34 49.6 °F /  9.8 °C 48.2 °F /  9 °C 29.4in /  996.3hPa WSW 4mph /  6.4km/h 7mph /  11.3km/h 95% 0in /  0.0mm 46 W/m2
09:39 49.8 °F /  9.9 °C 48.4 °F /  9.1 °C 29.4in /  996.3hPa NW 2.9mph /  4.7km/h 11mph /  17.7km/h 95% 0.01in /  0.2mm 18 W/m2
09:44 49.8 °F /  9.9 °C 48.4 °F /  9.1 °C 29.4in /  996.3hPa West 0.9mph /  1.4km/h 2mph /  3.2km/h 95% 0.02in /  0.5mm 30 W/m2
09:49 49.8 °F /  9.9 °C 48.4 °F /  9.1 °C 29.4in /  996.3hPa South 2.9mph /  4.7km/h 11mph /  17.7km/h 95% 0.02in /  0.5mm 32 W/m2
09:54 50 °F /  10 °C 48.6 °F /  9.2 °C 29.4in /  996.6hPa WSW 2mph /  3.2km/h 7mph /  11.3km/h 95% 0.02in /  0.5mm 25 W/m2
09:59 50 °F /  10 °C 48.6 °F /  9.2 °C 29.4in /  996.3hPa West 2.9mph /  4.7km/h 8mph /  12.9km/h 95% 0.02in /  0.5mm 42 W/m2
10:04 50 °F /  10 °C 48.6 °F /  9.2 °C 29.4in /  996.6hPa WSW 2.9mph /  4.7km/h 6mph /  9.7km/h 95% 0.02in /  0.5mm 30 W/m2
10:09 50.2 °F /  10.1 °C 48.7 °F /  9.3 °C 29.4in /  996.6hPa WNW 0.9mph /  1.4km/h 11mph /  17.7km/h 95% 0.02in /  0.5mm 33 W/m2
10:14 50.4 °F /  10.2 °C 48.9 °F /  9.4 °C 29.4in /  996.6hPa NNE 2mph /  3.2km/h 5mph /  8km/h 95% 0.02in /  0.5mm 19 W/m2
10:19 50.4 °F /  10.2 °C 48.9 °F /  9.4 °C 29.4in /  996.3hPa WNW 2.9mph /  4.7km/h 11mph /  17.7km/h 95% 0.02in /  0.5mm 56 W/m2
10:24 50.4 °F /  10.2 °C 48.9 °F /  9.4 °C 29.4in /  996.6hPa WNW 6.9mph /  11.1km/h 9mph /  14.5km/h 95% 0.02in /  0.5mm 30 W/m2
10:29 50.5 °F /  10.3 °C 49.1 °F /  9.5 °C 29.4in /  996.6hPa NNW 8.9mph /  14.3km/h 11mph /  17.7km/h 95% 0.02in /  0.5mm 35 W/m2
10:34 50.7 °F /  10.4 °C 49.1 °F /  9.5 °C 29.4in /  996.6hPa WNW 4mph /  6.4km/h 9mph /  14.5km/h 94% 0.02in /  0.5mm 51 W/m2
10:39 50.7 °F /  10.4 °C 49.1 °F /  9.5 °C 29.4in /  996.6hPa WSW 2mph /  3.2km/h 6mph /  9.7km/h 94% 0.02in /  0.5mm 62 W/m2
10:44 50.7 °F /  10.4 °C 49.1 °F /  9.5 °C 29.4in /  996.6hPa NNW 4.9mph /  7.9km/h 8mph /  12.9km/h 94% 0.01in /  0.2mm 54 W/m2
10:49 50.9 °F /  10.5 °C 49.3 °F /  9.6 °C 29.4in /  996.6hPa West 2.9mph /  4.7km/h 5mph /  8km/h 94% 0.01in /  0.2mm 58 W/m2
10:54 51.1 °F /  10.6 °C 49.5 °F /  9.7 °C 29.4in /  996.6hPa WNW 11mph /  17.7km/h 15mph /  24.1km/h 94% 0.01in /  0.2mm 67 W/m2
10:59 51.3 °F /  10.7 °C 49.3 °F /  9.6 °C 29.4in /  996.6hPa South 4mph /  6.4km/h 6mph /  9.7km/h 93% 0.01in /  0.2mm 84 W/m2
11:04 51.3 °F /  10.7 °C 49.3 °F /  9.6 °C 29.4in /  996.6hPa West 4mph /  6.4km/h 15mph /  24.1km/h 93% 0.01in /  0.2mm 105 W/m2
11:09 51.4 °F /  10.8 °C 49.5 °F /  9.7 °C 29.4in /  996.6hPa West 6mph /  9.7km/h 11mph /  17.7km/h 93% 0in /  0.0mm 76 W/m2
11:14 51.4 °F /  10.8 °C 49.3 °F /  9.6 °C 29.4in /  996.6hPa NW 2mph /  3.2km/h 14mph /  22.5km/h 92% 0in /  0.0mm 98 W/m2
11:19 51.4 °F /  10.8 °C 49.3 °F /  9.6 °C 29.4in /  996.6hPa NW 6mph /  9.7km/h 12mph /  19.3km/h 92% 0in /  0.0mm 86 W/m2
11:24 51.4 °F /  10.8 °C 49.3 °F /  9.6 °C 29.4in /  996.6hPa WSW 4.9mph /  7.9km/h 8mph /  12.9km/h 92% 0in /  0.0mm 60 W/m2
11:29 51.4 °F /  10.8 °C 49.3 °F /  9.6 °C 29.4in /  996.6hPa WNW 4mph /  6.4km/h 12mph /  19.3km/h 92% 0in /  0.0mm 62 W/m2
11:34 51.4 °F /  10.8 °C 49.3 °F /  9.6 °C 29.4in /  996.6hPa NNW 0.9mph /  1.4km/h 5mph /  8km/h 92% 0in /  0.0mm 54 W/m2
11:39 51.4 °F /  10.8 °C 49.3 °F /  9.6 °C 29.4in /  996.6hPa SSW 4.9mph /  7.9km/h 11mph /  17.7km/h 92% 0in /  0.0mm 62 W/m2
11:44 51.4 °F /  10.8 °C 49.3 °F /  9.6 °C 29.4in /  996.6hPa NW 0.9mph /  1.4km/h 7mph /  11.3km/h 92% 0in /  0.0mm 44 W/m2
11:49 51.4 °F /  10.8 °C 49.3 °F /  9.6 °C 29.4in /  997.0hPa WNW 2.9mph /  4.7km/h 18mph /  29km/h 92% 0in /  0.0mm 39 W/m2
11:54 51.3 °F /  10.7 °C 49.1 °F /  9.5 °C 29.4in /  996.6hPa West 4mph /  6.4km/h 10mph /  16.1km/h 92% 0in /  0.0mm 47 W/m2
11:59 50.9 °F /  10.5 °C 48.7 °F /  9.3 °C 29.4in /  996.6hPa WNW 0.9mph /  1.4km/h 13mph /  20.9km/h 92% 0in /  0.0mm 62 W/m2
12:04 50.9 °F /  10.5 °C 48.9 °F /  9.4 °C 29.4in /  996.3hPa NW 2.9mph /  4.7km/h 8mph /  12.9km/h 93% 0in /  0.0mm 79 W/m2
12:09 50.9 °F /  10.5 °C 48.9 °F /  9.4 °C 29.4in /  996.3hPa WNW 4mph /  6.4km/h 9mph /  14.5km/h 93% 0in /  0.0mm 113 W/m2
12:14 51.1 °F /  10.6 °C 49.1 °F /  9.5 °C 29.4in /  996.3hPa WNW 4mph /  6.4km/h 8mph /  12.9km/h 93% 0in /  0.0mm 105 W/m2
12:19 51.1 °F /  10.6 °C 48.9 °F /  9.4 °C 29.4in /  996.3hPa NNE 4mph /  6.4km/h 12mph /  19.3km/h 92% 0in /  0.0mm 74 W/m2
12:24 51.1 °F /  10.6 °C 48.9 °F /  9.4 °C 29.4in /  996.3hPa WSW 4mph /  6.4km/h 9mph /  14.5km/h 92% 0in /  0.0mm 30 W/m2
12:29 51.3 °F /  10.7 °C 49.1 °F /  9.5 °C 29.4in /  996.3hPa NW 4mph /  6.4km/h 10mph /  16.1km/h 92% 0in /  0.0mm 39 W/m2
12:34 51.3 °F /  10.7 °C 49.1 °F /  9.5 °C 29.4in /  995.9hPa West 2.9mph /  4.7km/h 14mph /  22.5km/h 92% 0in /  0.0mm 47 W/m2
12:39 51.1 °F /  10.6 °C 48.9 °F /  9.4 °C 29.4in /  995.9hPa West 8.1mph /  13km/h 14mph /  22.5km/h 92% 0in /  0.0mm 35 W/m2
12:44 51.1 °F /  10.6 °C 48.9 °F /  9.4 °C 29.4in /  995.9hPa West 2.9mph /  4.7km/h 10mph /  16.1km/h 92% 0in /  0.0mm 28 W/m2
12:49 50.9 °F /  10.5 °C 48.7 °F /  9.3 °C 29.4in /  996.3hPa NW 4.9mph /  7.9km/h 14mph /  22.5km/h 92% 0in /  0.0mm 19 W/m2
12:54 50.9 °F /  10.5 °C 48.7 °F /  9.3 °C 29.4in /  996.3hPa West 6.9mph /  11.1km/h 10mph /  16.1km/h 92% 0in /  0.0mm 19 W/m2
12:59 50.7 °F /  10.4 °C 48.6 °F /  9.2 °C 29.4in /  995.9hPa WNW 8.1mph /  13km/h 9mph /  14.5km/h 92% 0.01in /  0.2mm 32 W/m2
13:04 50.5 °F /  10.3 °C 48.6 °F /  9.2 °C 29.4in /  995.9hPa West 6.9mph /  11.1km/h 13mph /  20.9km/h 93% 0.01in /  0.2mm 30 W/m2
13:09 50.5 °F /  10.3 °C 48.6 °F /  9.2 °C 29.4in /  995.9hPa WSW 2mph /  3.2km/h 8mph /  12.9km/h 93% 0.01in /  0.2mm 35 W/m2
13:14 50.7 °F /  10.4 °C 48.6 °F /  9.2 °C 29.4in /  995.9hPa WNW 2.9mph /  4.7km/h 18mph /  29km/h 92% 0.01in /  0.2mm 28 W/m2
13:19 50.7 °F /  10.4 °C 48.6 °F /  9.2 °C 29.4in /  995.9hPa WSW 2mph /  3.2km/h 6mph /  9.7km/h 92% 0.01in /  0.2mm 32 W/m2
13:24 50.9 °F /  10.5 °C 48.7 °F /  9.3 °C 29.4in /  995.9hPa West 2mph /  3.2km/h 18mph /  29km/h 92% 0.01in /  0.2mm 42 W/m2
13:29 50.9 °F /  10.5 °C 48.7 °F /  9.3 °C 29.4in /  995.9hPa South 2mph /  3.2km/h 8mph /  12.9km/h 92% 0.01in /  0.2mm 46 W/m2
13:34 50.9 °F /  10.5 °C 48.7 °F /  9.3 °C 29.4in /  995.9hPa West 6.9mph /  11.1km/h 11mph /  17.7km/h 92% 0.01in /  0.2mm 54 W/m2
13:39 51.1 °F /  10.6 °C 48.6 °F /  9.2 °C 29.4in /  995.9hPa West 2mph /  3.2km/h 10mph /  16.1km/h 91% 0.01in /  0.2mm 72 W/m2
13:44 51.1 °F /  10.6 °C 48.6 °F /  9.2 °C 29.4in /  995.9hPa West 4mph /  6.4km/h 10mph /  16.1km/h 91% 0.01in /  0.2mm 74 W/m2
13:49 51.3 °F /  10.7 °C 48.4 °F /  9.1 °C 29.4in /  995.9hPa WNW 2mph /  3.2km/h 8mph /  12.9km/h 90% 0.01in /  0.2mm 74 W/m2
13:54 51.3 °F /  10.7 °C 48.4 °F /  9.1 °C 29.4in /  995.9hPa WNW 4.9mph /  7.9km/h 12mph /  19.3km/h 90% 0.01in /  0.2mm 70 W/m2
13:59 51.3 °F /  10.7 °C 48.2 °F /  9 °C 29.4in /  996.3hPa WNW 0.9mph /  1.4km/h 12mph /  19.3km/h 89% 0in /  0.0mm 69 W/m2
14:04 51.3 °F /  10.7 °C 48.2 °F /  9 °C 29.4in /  996.6hPa WNW 0.9mph /  1.4km/h 8mph /  12.9km/h 89% 0in /  0.0mm 70 W/m2
14:09 51.4 °F /  10.8 °C 48 °F /  8.9 °C 29.4in /  996.6hPa WSW 2.9mph /  4.7km/h 15mph /  24.1km/h 88% 0in /  0.0mm 49 W/m2
14:14 51.3 °F /  10.7 °C 47.8 °F /  8.8 °C 29.4in /  995.9hPa WSW 8.1mph /  13km/h 12mph /  19.3km/h 88% 0in /  0.0mm 58 W/m2
14:19 51.3 °F /  10.7 °C 47.5 °F /  8.6 °C 29.4in /  995.9hPa WNW 6.9mph /  11.1km/h 15mph /  24.1km/h 87% 0in /  0.0mm 67 W/m2
14:24 51.4 °F /  10.8 °C 47.5 °F /  8.6 °C 29.4in /  995.9hPa WNW 4mph /  6.4km/h 8mph /  12.9km/h 86% 0in /  0.0mm 65 W/m2
14:29 51.4 °F /  10.8 °C 47.5 °F /  8.6 °C 29.4in /  995.9hPa WNW 8.9mph /  14.3km/h 12mph /  19.3km/h 86% 0in /  0.0mm 51 W/m2
14:34 51.4 °F /  10.8 °C 47.1 °F /  8.4 °C 29.4in /  996.3hPa West 4mph /  6.4km/h 12mph /  19.3km/h 85% 0in /  0.0mm 32 W/m2
15:17 50.7 °F /  10.4 °C 43.5 °F /  6.4 °C 29.4in /  996.6hPa Calm     76% 0in /  0.0mm 26 W/m2
15:22 50.7 °F /  10.4 °C 43.2 °F /  6.2 °C 29.4in /  996.6hPa West 12.1mph /  19.5km/h 12mph /  19.3km/h 75% 0in /  0.0mm 33 W/m2
15:29 50.5 °F /  10.3 °C 43 °F /  6.1 °C 29.4in /  996.3hPa West 2mph /  3.2km/h 8mph /  12.9km/h 75% 0in /  0.0mm 26 W/m2
15:34 50.5 °F /  10.3 °C 43.3 °F /  6.3 °C 29.4in /  996.6hPa NW 2.9mph /  4.7km/h 9mph /  14.5km/h 76% 0in /  0.0mm 28 W/m2
15:39 50.5 °F /  10.3 °C 43.5 °F /  6.4 °C 29.4in /  996.6hPa West 4mph /  6.4km/h 9mph /  14.5km/h 77% 0in /  0.0mm 25 W/m2
15:44 50.5 °F /  10.3 °C 43.5 °F /  6.4 °C 29.4in /  996.6hPa WNW 2mph /  3.2km/h 13mph /  20.9km/h 77% 0in /  0.0mm 23 W/m2
15:49 50.4 °F /  10.2 °C 43.3 °F /  6.3 °C 29.4in /  996.6hPa South 12.1mph /  19.5km/h 12mph /  19.3km/h 77% 0in /  0.0mm 23 W/m2
15:54 50.4 °F /  10.2 °C 43.3 °F /  6.3 °C 29.4in /  997.0hPa West 6mph /  9.7km/h 13mph /  20.9km/h 77% 0in /  0.0mm 21 W/m2
15:59 50.4 °F /  10.2 °C 43.2 °F /  6.2 °C 29.4in /  997.0hPa WSW 4.9mph /  7.9km/h 13mph /  20.9km/h 76% 0in /  0.0mm 21 W/m2
16:04 50.2 °F /  10.1 °C 43.3 °F /  6.3 °C 29.4in /  997.0hPa WNW 2.9mph /  4.7km/h 13mph /  20.9km/h 77% 0in /  0.0mm 19 W/m2
16:09 50.2 °F /  10.1 °C 43.3 °F /  6.3 °C 29.4in /  997.0hPa West 2mph /  3.2km/h 11mph /  17.7km/h 77% 0in /  0.0mm 18 W/m2
16:14 50 °F /  10 °C 43.3 °F /  6.3 °C 29.4in /  997.0hPa West 6.9mph /  11.1km/h 13mph /  20.9km/h 78% 0in /  0.0mm 16 W/m2
16:19 50 °F /  10 °C 43.7 °F /  6.5 °C 29.4in /  997.0hPa West 2.9mph /  4.7km/h 8mph /  12.9km/h 79% 0in /  0.0mm 14 W/m2
16:24 49.8 °F /  9.9 °C 43.5 °F /  6.4 °C 29.4in /  997.0hPa West 2mph /  3.2km/h 7mph /  11.3km/h 79% 0in /  0.0mm 12 W/m2
16:29 49.8 °F /  9.9 °C 43.9 °F /  6.6 °C 29.4in /  997.0hPa WNW 0.9mph /  1.4km/h 10mph /  16.1km/h 80% 0in /  0.0mm 11 W/m2
16:34 49.6 °F /  9.8 °C 43.7 °F /  6.5 °C 29.4in /  997.0hPa West 6.9mph /  11.1km/h 7mph /  11.3km/h 80% 0in /  0.0mm 7 W/m2
16:39 49.6 °F /  9.8 °C 43.7 °F /  6.5 °C 29.5in /  997.3hPa West 10.1mph /  16.3km/h 13mph /  20.9km/h 80% 0in /  0.0mm 5 W/m2
16:44 49.8 °F /  9.9 °C 43.5 °F /  6.4 °C 29.5in /  997.3hPa West 6.9mph /  11.1km/h 10mph /  16.1km/h 79% 0in /  0.0mm 5 W/m2
16:49 49.8 °F /  9.9 °C 43.5 °F /  6.4 °C 29.5in /  997.3hPa NW 4.9mph /  7.9km/h 10mph /  16.1km/h 79% 0in /  0.0mm 0 W/m2
16:54 50 °F /  10 °C 43.3 °F /  6.3 °C 29.5in /  997.3hPa West 2.9mph /  4.7km/h 8mph /  12.9km/h 78% 0in /  0.0mm 0 W/m2
16:59 50 °F /  10 °C 43.3 °F /  6.3 °C 29.5in /  997.3hPa SSW 2.9mph /  4.7km/h 8mph /  12.9km/h 78% 0in /  0.0mm 0 W/m2
17:04 50.2 °F /  10.1 °C 43.5 °F /  6.4 °C 29.5in /  997.3hPa West 2mph /  3.2km/h 9mph /  14.5km/h 78% 0in /  0.0mm 0 W/m2
17:09 50.2 °F /  10.1 °C 43.3 °F /  6.3 °C 29.5in /  997.6hPa SW 4mph /  6.4km/h 12mph /  19.3km/h 77% 0in /  0.0mm 0 W/m2
17:14 50.4 °F /  10.2 °C 43.3 °F /  6.3 °C 29.5in /  997.6hPa North 4.9mph /  7.9km/h 8mph /  12.9km/h 77% 0in /  0.0mm 0 W/m2
17:19 50.4 °F /  10.2 °C 43.3 °F /  6.3 °C 29.5in /  997.6hPa West 2mph /  3.2km/h 10mph /  16.1km/h 77% 0in /  0.0mm 0 W/m2
17:24 50.4 °F /  10.2 °C 43.3 °F /  6.3 °C 29.5in /  997.6hPa NW 2mph /  3.2km/h 6mph /  9.7km/h 77% 0in /  0.0mm 0 W/m2
17:29 50.4 °F /  10.2 °C 43.7 °F /  6.5 °C 29.5in /  997.6hPa SW 2.9mph /  4.7km/h 11mph /  17.7km/h 78% 0in /  0.0mm 0 W/m2
17:34 50.4 °F /  10.2 °C 44.1 °F /  6.7 °C 29.5in /  998.0hPa NNW 2mph /  3.2km/h 7mph /  11.3km/h 79% 0in /  0.0mm 0 W/m2
17:39 50.4 °F /  10.2 °C 44.4 °F /  6.9 °C 29.5in /  998.0hPa WNW 6mph /  9.7km/h 13mph /  20.9km/h 80% 0in /  0.0mm 0 W/m2
17:44 50.2 °F /  10.1 °C 45 °F /  7.2 °C 29.5in /  998.0hPa NNW 4mph /  6.4km/h 6mph /  9.7km/h 82% 0in /  0.0mm 0 W/m2
17:49 50.2 °F /  10.1 °C 45 °F /  7.2 °C 29.5in /  997.6hPa West 4mph /  6.4km/h 5mph /  8km/h 82% 0in /  0.0mm 0 W/m2
17:54 49.8 °F /  9.9 °C 45.1 °F /  7.3 °C 29.5in /  998.0hPa North 4mph /  6.4km/h 5mph /  8km/h 84% 0in /  0.0mm 0 W/m2
17:59 49.8 °F /  9.9 °C 45.1 °F /  7.3 °C 29.5in /  998.0hPa NNE 4.9mph /  7.9km/h 5mph /  8km/h 84% 0in /  0.0mm 0 W/m2
18:04 49.8 °F /  9.9 °C 45.5 °F /  7.5 °C 29.5in /  998.0hPa NNW 8.9mph /  14.3km/h 10mph /  16.1km/h 85% 0in /  0.0mm 0 W/m2
18:09 49.6 °F /  9.8 °C 45.7 °F /  7.6 °C 29.5in /  998.0hPa NNW 2mph /  3.2km/h 11mph /  17.7km/h 86% 0in /  0.0mm 0 W/m2
18:14 49.5 °F /  9.7 °C 45.5 °F /  7.5 °C 29.5in /  998.0hPa SW 0.9mph /  1.4km/h 4mph /  6.4km/h 86% 0in /  0.0mm 0 W/m2
18:19 49.3 °F /  9.6 °C 45.3 °F /  7.4 °C 29.5in /  998.0hPa NW 8.1mph /  13km/h 11mph /  17.7km/h 86% 0in /  0.0mm 0 W/m2
18:24 49.5 °F /  9.7 °C 45.5 °F /  7.5 °C 29.5in /  998.3hPa West 6mph /  9.7km/h 8mph /  12.9km/h 86% 0in /  0.0mm 0 W/m2
18:29 49.5 °F /  9.7 °C 45.5 °F /  7.5 °C 29.5in /  998.3hPa West 6mph /  9.7km/h 14mph /  22.5km/h 86% 0in /  0.0mm 0 W/m2
18:34 49.5 °F /  9.7 °C 45.5 °F /  7.5 °C 29.5in /  998.3hPa West 11mph /  17.7km/h 11mph /  17.7km/h 86% 0in /  0.0mm 0 W/m2
18:39 49.5 °F /  9.7 °C 45.1 °F /  7.3 °C 29.5in /  998.3hPa SW 0.9mph /  1.4km/h 11mph /  17.7km/h 85% 0in /  0.0mm 0 W/m2
18:44 49.6 °F /  9.8 °C 45.3 °F /  7.4 °C 29.5in /  998.0hPa NW 0.9mph /  1.4km/h 17mph /  27.4km/h 85% 0.01in /  0.2mm 0 W/m2
18:49 49.6 °F /  9.8 °C 45 °F /  7.2 °C 29.5in /  998.0hPa NW 4.9mph /  7.9km/h 10mph /  16.1km/h 84% 0.01in /  0.2mm 0 W/m2
18:54 49.6 °F /  9.8 °C 45 °F /  7.2 °C 29.5in /  998.3hPa WNW 4.9mph /  7.9km/h 17mph /  27.4km/h 84% 0.01in /  0.2mm 0 W/m2
18:59 49.6 °F /  9.8 °C 45 °F /  7.2 °C 29.5in /  998.0hPa NW 17mph /  27.4km/h 19mph /  30.6km/h 84% 0.01in /  0.2mm 0 W/m2
19:04 49.6 °F /  9.8 °C 45.3 °F /  7.4 °C 29.5in /  998.3hPa WNW 8.9mph /  14.3km/h 13mph /  20.9km/h 85% 0.01in /  0.2mm 0 W/m2
19:09 49.3 °F /  9.6 °C 45.3 °F /  7.4 °C 29.5in /  998.3hPa WNW 6.9mph /  11.1km/h 13mph /  20.9km/h 86% 0.02in /  0.5mm 0 W/m2
19:14 48.9 °F /  9.4 °C 45.1 °F /  7.3 °C 29.5in /  998.3hPa WSW 6.9mph /  11.1km/h 16mph /  25.7km/h 87% 0.02in /  0.5mm 0 W/m2
19:19 48.7 °F /  9.3 °C 45.3 °F /  7.4 °C 29.5in /  998.6hPa West 6mph /  9.7km/h 11mph /  17.7km/h 88% 0.02in /  0.5mm 0 W/m2
19:24 48.7 °F /  9.3 °C 45 °F /  7.2 °C 29.5in /  998.3hPa NW 11mph /  17.7km/h 11mph /  17.7km/h 87% 0.02in /  0.5mm 0 W/m2
19:29 48.7 °F /  9.3 °C 45 °F /  7.2 °C 29.5in /  998.6hPa West 6mph /  9.7km/h 14mph /  22.5km/h 87% 0.02in /  0.5mm 0 W/m2
19:34 48.9 °F /  9.4 °C 45 °F /  7.2 °C 29.5in /  998.3hPa WNW 10.1mph /  16.3km/h 14mph /  22.5km/h 86% 0.02in /  0.5mm 0 W/m2
19:39 49.1 °F /  9.5 °C 45.1 °F /  7.3 °C 29.5in /  998.3hPa SW 6.9mph /  11.1km/h 12mph /  19.3km/h 86% 0.02in /  0.5mm 0 W/m2
19:44 49.3 °F /  9.6 °C 45 °F /  7.2 °C 29.5in /  998.6hPa WSW 11mph /  17.7km/h 14mph /  22.5km/h 85% 0.02in /  0.5mm 0 W/m2
19:49 49.3 °F /  9.6 °C 45.3 °F /  7.4 °C 29.5in /  998.6hPa WNW 6.9mph /  11.1km/h 10mph /  16.1km/h 86% 0.02in /  0.5mm 0 W/m2
19:54 49.1 °F /  9.5 °C 45.1 °F /  7.3 °C 29.5in /  998.6hPa WNW 8.1mph /  13km/h 15mph /  24.1km/h 86% 0.02in /  0.5mm 0 W/m2
19:59 49.1 °F /  9.5 °C 45.1 °F /  7.3 °C 29.5in /  999.0hPa West 13mph /  20.9km/h 17mph /  27.4km/h 86% 0.02in /  0.5mm 0 W/m2
20:04 48.9 °F /  9.4 °C 45.1 °F /  7.3 °C 29.5in /  998.6hPa West 4mph /  6.4km/h 13mph /  20.9km/h 87% 0.02in /  0.5mm 0 W/m2
20:09 48.7 °F /  9.3 °C 45 °F /  7.2 °C 29.5in /  998.6hPa NW 4mph /  6.4km/h 15mph /  24.1km/h 87% 0.01in /  0.2mm 0 W/m2
20:14 48.7 °F /  9.3 °C 45 °F /  7.2 °C 29.5in /  999.0hPa West 10.1mph /  16.3km/h 11mph /  17.7km/h 87% 0in /  0.0mm 0 W/m2
20:19 48.7 °F /  9.3 °C 45 °F /  7.2 °C 29.5in /  999.0hPa WSW 17mph /  27.4km/h 21mph /  33.8km/h 87% 0in /  0.0mm 0 W/m2
20:24 48.9 °F /  9.4 °C 45.1 °F /  7.3 °C 29.5in /  999.0hPa WNW 8.1mph /  13km/h 19mph /  30.6km/h 87% 0in /  0.0mm 0 W/m2
20:29 48.9 °F /  9.4 °C 45.1 °F /  7.3 °C 29.5in /  998.6hPa West 2mph /  3.2km/h 21mph /  33.8km/h 87% 0in /  0.0mm 0 W/m2
20:34 48.9 °F /  9.4 °C 45.1 °F /  7.3 °C 29.5in /  998.6hPa West 10.1mph /  16.3km/h 14mph /  22.5km/h 87% 0in /  0.0mm 0 W/m2
20:39 48.9 °F /  9.4 °C 45.1 °F /  7.3 °C 29.5in /  998.6hPa WNW 12.1mph /  19.5km/h 14mph /  22.5km/h 87% 0in /  0.0mm 0 W/m2
20:44 48.9 °F /  9.4 °C 45.1 °F /  7.3 °C 29.5in /  999.0hPa WNW 6.9mph /  11.1km/h 19mph /  30.6km/h 87% 0in /  0.0mm 0 W/m2
20:49 48.9 °F /  9.4 °C 45.1 °F /  7.3 °C 29.5in /  999.0hPa West 10.1mph /  16.3km/h 21mph /  33.8km/h 87% 0in /  0.0mm 0 W/m2
20:54 48.9 °F /  9.4 °C 45.1 °F /  7.3 °C 29.5in /  999.0hPa WNW 8.1mph /  13km/h 15mph /  24.1km/h 87% 0in /  0.0mm 0 W/m2
20:59 48.9 °F /  9.4 °C 45.1 °F /  7.3 °C 29.5in /  999.3hPa WSW 4.9mph /  7.9km/h 17mph /  27.4km/h 87% 0in /  0.0mm 0 W/m2
21:04 48.9 °F /  9.4 °C 45.1 °F /  7.3 °C 29.5in /  999.3hPa West 12.1mph /  19.5km/h 23mph /  37km/h 87% 0in /  0.0mm 0 W/m2
21:09 48.7 °F /  9.3 °C 45 °F /  7.2 °C 29.5in /  999.3hPa West 8.1mph /  13km/h 20mph /  32.2km/h 87% 0in /  0.0mm 0 W/m2
21:14 48.7 °F /  9.3 °C 45 °F /  7.2 °C 29.5in /  999.7hPa WNW 6mph /  9.7km/h 12mph /  19.3km/h 87% 0in /  0.0mm 0 W/m2
21:19 48.7 °F /  9.3 °C 45.3 °F /  7.4 °C 29.5in /  999.7hPa West 13mph /  20.9km/h 21mph /  33.8km/h 88% 0in /  0.0mm 0 W/m2
21:24 48.6 °F /  9.2 °C 45.1 °F /  7.3 °C 29.5in /  999.7hPa WNW 10.1mph /  16.3km/h 17mph /  27.4km/h 88% 0in /  0.0mm 0 W/m2
21:29 48.4 °F /  9.1 °C 45.3 °F /  7.4 °C 29.5in /  1000.0hPa WNW 8.1mph /  13km/h 16mph /  25.7km/h 89% 0in /  0.0mm 0 W/m2
21:34 48 °F /  8.9 °C 45.1 °F /  7.3 °C 29.5in /  1000.0hPa WSW 11mph /  17.7km/h 20mph /  32.2km/h 90% 0in /  0.0mm 0 W/m2
21:39 47.8 °F /  8.8 °C 45 °F /  7.2 °C 29.5in /  1000.0hPa WNW 8.9mph /  14.3km/h 16mph /  25.7km/h 90% 0in /  0.0mm 0 W/m2
21:44 47.7 °F /  8.7 °C 45.1 °F /  7.3 °C 29.5in /  1000.3hPa West 16.1mph /  25.9km/h 22mph /  35.4km/h 91% 0in /  0.0mm 0 W/m2
21:49 47.7 °F /  8.7 °C 45.1 °F /  7.3 °C 29.5in /  1000.3hPa WNW 10.1mph /  16.3km/h 15mph /  24.1km/h 91% 0.01in /  0.2mm 0 W/m2
21:54 47.5 °F /  8.6 °C 45 °F /  7.2 °C 29.6in /  1000.7hPa NW 4mph /  6.4km/h 22mph /  35.4km/h 91% 0.01in /  0.2mm 0 W/m2
21:59 47.5 °F /  8.6 °C 45.3 °F /  7.4 °C 29.6in /  1000.7hPa West 8.1mph /  13km/h 17mph /  27.4km/h 92% 0.01in /  0.2mm 0 W/m2
22:04 47.3 °F /  8.5 °C 45.1 °F /  7.3 °C 29.6in /  1000.7hPa WNW 2mph /  3.2km/h 12mph /  19.3km/h 92% 0.01in /  0.2mm 0 W/m2
22:09 47.1 °F /  8.4 °C 45 °F /  7.2 °C 29.6in /  1000.7hPa NW 4.9mph /  7.9km/h 14mph /  22.5km/h 92% 0.01in /  0.2mm 0 W/m2
22:14 47.1 °F /  8.4 °C 45.1 °F /  7.3 °C 29.6in /  1001.0hPa NNW 15mph /  24.1km/h 18mph /  29km/h 93% 0.02in /  0.5mm 0 W/m2
22:19 47.1 °F /  8.4 °C 45.1 °F /  7.3 °C 29.6in /  1001.0hPa West 8.9mph /  14.3km/h 16mph /  25.7km/h 93% 0.02in /  0.5mm 0 W/m2
22:24 46.9 °F /  8.3 °C 45 °F /  7.2 °C 29.6in /  1001.4hPa WSW 10.1mph /  16.3km/h 21mph /  33.8km/h 93% 0.02in /  0.5mm 0 W/m2
22:29 46.9 °F /  8.3 °C 45 °F /  7.2 °C 29.6in /  1001.4hPa West 10.1mph /  16.3km/h 13mph /  20.9km/h 93% 0.02in /  0.5mm 0 W/m2
22:34 46.9 °F /  8.3 °C 45 °F /  7.2 °C 29.6in /  1001.4hPa West 8.1mph /  13km/h 15mph /  24.1km/h 93% 0.02in /  0.5mm 0 W/m2
22:39 46.9 °F /  8.3 °C 45 °F /  7.2 °C 29.6in /  1001.4hPa West 8.1mph /  13km/h 9mph /  14.5km/h 93% 0.02in /  0.5mm 0 W/m2
22:45 46.9 °F /  8.3 °C 45 °F /  7.2 °C 29.6in /  1001.4hPa WNW 12.1mph /  19.5km/h 18mph /  29km/h 93% 0.02in /  0.5mm 0 W/m2
22:50 46.9 °F /  8.3 °C 45 °F /  7.2 °C 29.6in /  1001.7hPa WNW 12.1mph /  19.5km/h 14mph /  22.5km/h 93% 0.02in /  0.5mm 0 W/m2
22:55 46.9 °F /  8.3 °C 45 °F /  7.2 °C 29.6in /  1001.7hPa WNW 4.9mph /  7.9km/h 12mph /  19.3km/h 93% 0.02in /  0.5mm 0 W/m2
23:00 47.1 °F /  8.4 °C 45.1 °F /  7.3 °C 29.6in /  1001.7hPa WNW 6.9mph /  11.1km/h 16mph /  25.7km/h 93% 0.02in /  0.5mm 0 W/m2
23:05 47.5 °F /  8.6 °C 45.5 °F /  7.5 °C 29.6in /  1001.7hPa West 8.9mph /  14.3km/h 11mph /  17.7km/h 93% 0.02in /  0.5mm 0 W/m2
23:10 47.5 °F /  8.6 °C 45.5 °F /  7.5 °C 29.6in /  1002.0hPa SW 6mph /  9.7km/h 14mph /  22.5km/h 93% 0.02in /  0.5mm 0 W/m2
23:15 47.5 °F /  8.6 °C 45.5 °F /  7.5 °C 29.6in /  1002.0hPa West 11mph /  17.7km/h 19mph /  30.6km/h 93% 0.01in /  0.2mm 0 W/m2
23:20 47.5 °F /  8.6 °C 45.5 °F /  7.5 °C 29.6in /  1002.0hPa West 8.9mph /  14.3km/h 19mph /  30.6km/h 93% 0.01in /  0.2mm 0 W/m2
23:25 47.5 °F /  8.6 °C 45.5 °F /  7.5 °C 29.6in /  1002.4hPa WSW 8.1mph /  13km/h 17mph /  27.4km/h 93% 0.01in /  0.2mm 0 W/m2
23:30 47.5 °F /  8.6 °C 45.5 °F /  7.5 °C 29.6in /  1002.4hPa West 11mph /  17.7km/h 18mph /  29km/h 93% 0.01in /  0.2mm 0 W/m2
23:35 47.5 °F /  8.6 °C 45.5 °F /  7.5 °C 29.6in /  1002.4hPa West 10.1mph /  16.3km/h 20mph /  32.2km/h 93% 0.01in /  0.2mm 0 W/m2
23:40 47.5 °F /  8.6 °C 45.3 °F /  7.4 °C 29.6in /  1002.4hPa SW 8.1mph /  13km/h 12mph /  19.3km/h 92% 0.01in /  0.2mm 0 W/m2
23:45 47.7 °F /  8.7 °C 45.5 °F /  7.5 °C 29.6in /  1002.4hPa NNW 8.9mph /  14.3km/h 13mph /  20.9km/h 92% 0in /  0.0mm 0 W/m2
23:50 47.7 °F /  8.7 °C 45.5 °F /  7.5 °C 29.6in /  1002.7hPa West 8.1mph /  13km/h 14mph /  22.5km/h 92% 0in /  0.0mm 0 W/m2
23:55 47.8 °F /  8.8 °C 45.3 °F /  7.4 °C 29.6in /  1002.7hPa WSW 10.1mph /  16.3km/h 12mph /  19.3km/h 91% 0in /  0.0mm 0 W/m2
Juneau County Weather
Compliments of Weather Underground - 4 mb